createdAt,value
2017-11-23T00:00:39.626Z,4.24
2017-11-23T00:03:07.804Z,4.18
2017-11-23T00:05:35.993Z,4.17
2017-11-23T00:08:04.187Z,4.19
2017-11-23T00:10:33.199Z,4.21
2017-11-23T00:13:01.385Z,4.18
2017-11-23T00:15:29.602Z,4.14
2017-11-23T00:17:57.784Z,4.19
2017-11-23T00:20:25.976Z,4.16
2017-11-23T00:22:54.149Z,4.14
2017-11-23T00:25:22.340Z,4.16
2017-11-23T00:27:51.282Z,4.14
2017-11-23T00:30:19.452Z,4.02
2017-11-23T00:32:47.633Z,3.98
2017-11-23T00:35:15.803Z,3.86
2017-11-23T00:37:43.974Z,3.88
2017-11-23T00:40:12.158Z,3.94
2017-11-23T00:42:40.331Z,4.00
2017-11-23T00:45:08.547Z,4.04
2017-11-23T00:47:37.505Z,4.09
2017-11-23T00:50:05.771Z,4.19
2017-11-23T00:52:33.949Z,4.63
2017-11-23T00:55:02.116Z,4.98
2017-11-23T00:57:30.299Z,5.10
2017-11-23T00:59:58.496Z,5.27
2017-11-23T01:02:26.677Z,5.32
2017-11-23T01:04:54.876Z,5.44
2017-11-23T01:07:23.829Z,5.48
2017-11-23T01:09:52.017Z,5.35
2017-11-23T01:12:20.275Z,5.07
2017-11-23T01:14:48.461Z,4.93
2017-11-23T01:17:16.634Z,4.90
2017-11-23T01:19:44.821Z,4.48
2017-11-23T01:22:18.529Z,4.35
2017-11-23T01:24:46.750Z,4.22
2017-11-23T01:27:14.919Z,4.17
2017-11-23T01:29:43.112Z,4.21
2017-11-23T01:32:11.298Z,4.16
2017-11-23T01:34:39.469Z,4.07
2017-11-23T01:37:07.666Z,4.02
2017-11-23T01:39:35.880Z,3.97
2017-11-23T01:42:04.063Z,3.95
2017-11-23T01:44:32.268Z,3.95
2017-11-23T01:47:00.439Z,3.95
2017-11-23T01:49:28.632Z,3.89
2017-11-23T01:51:56.823Z,3.87
2017-11-23T01:54:25.002Z,3.80
2017-11-23T01:56:53.176Z,3.73
2017-11-23T01:59:21.481Z,3.71
2017-11-23T02:01:49.680Z,3.74
2017-11-23T02:04:17.965Z,3.78
2017-11-23T02:06:46.920Z,3.77
2017-11-23T02:09:15.118Z,3.72
2017-11-23T02:11:43.364Z,3.73
2017-11-23T02:14:11.601Z,3.85
2017-11-23T02:16:39.800Z,4.05
2017-11-23T02:19:08.060Z,4.28
2017-11-23T02:21:36.291Z,4.67
2017-11-23T02:24:04.495Z,4.91
2017-11-23T02:26:33.472Z,5.05
2017-11-23T02:29:01.668Z,5.09
2017-11-23T02:31:30.646Z,5.10
2017-11-23T02:33:59.636Z,5.07
2017-11-23T02:36:28.636Z,4.78
2017-11-23T02:38:57.587Z,4.54
2017-11-23T02:41:26.608Z,4.29
2017-11-23T02:43:54.833Z,4.25
2017-11-23T02:46:23.016Z,4.06
2017-11-23T02:48:51.205Z,3.90
2017-11-23T02:51:19.371Z,3.81
2017-11-23T02:53:47.587Z,3.76
2017-11-23T02:56:16.554Z,3.77
2017-11-23T02:58:44.756Z,3.73
2017-11-23T03:01:13.051Z,3.73
2017-11-23T03:03:42.069Z,3.72
2017-11-23T03:06:10.252Z,3.75
2017-11-23T03:08:38.452Z,3.88
2017-11-23T03:11:07.412Z,4.08
2017-11-23T03:13:35.634Z,4.28
2017-11-23T03:16:03.807Z,4.49
2017-11-23T03:18:31.975Z,4.72
2017-11-23T03:21:00.141Z,4.87
2017-11-23T03:23:28.320Z,4.91
2017-11-23T03:25:56.508Z,4.94
2017-11-23T03:28:24.683Z,5.12
2017-11-23T03:30:52.857Z,5.13
2017-11-23T03:33:21.101Z,5.13
2017-11-23T03:35:49.269Z,5.11
2017-11-23T03:38:17.451Z,5.10
2017-11-23T03:40:45.709Z,5.12
2017-11-23T03:43:13.907Z,5.09
2017-11-23T03:45:42.109Z,5.08
2017-11-23T03:48:10.283Z,5.01
2017-11-23T03:50:38.549Z,4.99
2017-11-23T03:53:06.741Z,5.06
2017-11-23T03:55:34.931Z,5.03
2017-11-23T03:58:03.906Z,5.16
2017-11-23T04:00:32.090Z,5.18
2017-11-23T04:03:00.276Z,5.19
2017-11-23T04:05:29.222Z,5.17
2017-11-23T04:07:57.398Z,5.14
2017-11-23T04:10:25.581Z,5.15
2017-11-23T04:12:53.779Z,4.95
2017-11-23T04:15:21.963Z,4.71
2017-11-23T04:17:50.924Z,4.43
2017-11-23T04:20:19.179Z,4.22
2017-11-23T04:22:47.389Z,4.14
2017-11-23T04:25:15.609Z,4.00
2017-11-23T04:27:43.795Z,3.76
2017-11-23T04:30:11.996Z,3.59
2017-11-23T04:32:40.172Z,3.57
2017-11-23T04:35:09.176Z,3.49
2017-11-23T04:37:37.370Z,3.35
2017-11-23T04:40:05.556Z,3.30
2017-11-23T04:42:34.545Z,3.23
2017-11-23T04:45:03.524Z,3.16
2017-11-23T04:47:31.727Z,3.09
2017-11-23T04:49:59.933Z,3.10
2017-11-23T04:52:28.146Z,3.20
2017-11-23T04:54:56.321Z,3.10
2017-11-23T04:57:24.498Z,3.07
2017-11-23T04:59:52.691Z,3.07
2017-11-23T05:02:21.636Z,3.00
2017-11-23T05:04:49.805Z,3.04
2017-11-23T05:07:17.998Z,3.04
2017-11-23T05:09:46.229Z,3.08
2017-11-23T05:12:14.415Z,3.16
2017-11-23T05:14:42.572Z,3.15
2017-11-23T05:17:10.753Z,3.21
2017-11-23T05:19:38.937Z,3.15
2017-11-23T05:22:07.112Z,3.13
2017-11-23T05:24:35.271Z,3.13
2017-11-23T05:27:03.477Z,3.20
2017-11-23T05:29:31.648Z,3.12
2017-11-23T05:31:59.856Z,3.12
2017-11-23T05:34:28.040Z,3.17
2017-11-23T05:36:56.214Z,3.21
2017-11-23T05:39:24.395Z,3.31
2017-11-23T05:41:52.577Z,3.44
2017-11-23T05:44:21.520Z,3.47
2017-11-23T05:46:49.723Z,3.60
2017-11-23T05:49:17.916Z,3.63
2017-11-23T05:51:46.873Z,3.79
2017-11-23T05:54:15.041Z,3.97
2017-11-23T05:56:43.251Z,4.14
2017-11-23T05:59:11.417Z,4.29
2017-11-23T06:01:39.597Z,4.39
2017-11-23T06:04:07.788Z,4.54
2017-11-23T06:06:36.733Z,4.69
2017-11-23T06:09:04.963Z,4.80
2017-11-23T06:11:33.904Z,4.94
2017-11-23T06:14:02.067Z,5.05
2017-11-23T06:16:30.252Z,5.21
2017-11-23T06:18:58.417Z,5.26
2017-11-23T06:21:26.584Z,5.31
2017-11-23T06:23:54.749Z,5.35
2017-11-23T06:26:22.908Z,5.35
2017-11-23T06:28:51.845Z,5.27
2017-11-23T06:31:20.070Z,4.94
2017-11-23T06:33:49.007Z,4.76
2017-11-23T06:36:17.235Z,4.85
2017-11-23T06:38:46.170Z,4.62
2017-11-23T06:41:14.341Z,4.65
2017-11-23T06:43:42.548Z,4.66
2017-11-23T06:46:10.720Z,4.67
2017-11-23T06:48:38.889Z,4.87
2017-11-23T06:51:07.081Z,5.06
2017-11-23T06:53:35.253Z,5.20
2017-11-23T06:56:03.429Z,5.35
2017-11-23T06:58:31.612Z,5.34
2017-11-23T07:01:00.566Z,5.38
2017-11-23T07:03:28.823Z,5.45
2017-11-23T07:05:57.064Z,5.31
2017-11-23T07:08:26.002Z,5.36
2017-11-23T07:10:54.194Z,5.34
2017-11-23T07:13:22.387Z,5.41
2017-11-23T07:15:50.589Z,5.44
2017-11-23T07:18:19.547Z,5.51
2017-11-23T07:20:47.732Z,5.79
2017-11-23T07:23:15.911Z,5.95
2017-11-23T07:25:44.281Z,6.09
2017-11-23T07:28:18.072Z,6.24
2017-11-23T07:30:46.257Z,6.38
2017-11-23T07:33:14.449Z,6.47
2017-11-23T07:35:43.408Z,6.46
2017-11-23T07:38:11.596Z,6.47
2017-11-23T07:40:39.769Z,6.50
2017-11-23T07:43:07.964Z,6.57
2017-11-23T07:45:36.211Z,6.65
2017-11-23T07:48:04.475Z,6.67
2017-11-23T07:50:32.707Z,6.76
2017-11-23T07:53:01.676Z,6.78
2017-11-23T07:55:29.874Z,6.92
2017-11-23T07:57:59.071Z,6.96
2017-11-23T08:00:28.023Z,7.01
2017-11-23T08:02:56.188Z,7.06
2017-11-23T08:05:24.363Z,7.17
2017-11-23T08:07:52.545Z,7.33
2017-11-23T08:10:20.711Z,7.37
2017-11-23T08:12:48.887Z,7.43
2017-11-23T08:15:17.060Z,7.54
2017-11-23T08:17:45.256Z,7.60
2017-11-23T08:20:13.449Z,7.69
2017-11-23T08:22:42.390Z,7.73
2017-11-23T08:25:10.571Z,7.84
2017-11-23T08:27:38.728Z,7.91
2017-11-23T08:30:06.920Z,7.87
2017-11-23T08:32:35.091Z,7.97
2017-11-23T08:35:03.250Z,8.08
2017-11-23T08:37:31.444Z,8.10
2017-11-23T08:39:59.608Z,8.18
2017-11-23T08:42:27.791Z,8.22
2017-11-23T08:44:55.965Z,8.27
2017-11-23T08:47:24.116Z,8.31
2017-11-23T08:49:52.302Z,8.41
2017-11-23T08:52:20.520Z,8.52
2017-11-23T08:54:54.092Z,8.70
2017-11-23T08:57:22.275Z,8.85
2017-11-23T08:59:50.436Z,8.90
2017-11-23T09:02:18.590Z,9.02
2017-11-23T09:04:46.768Z,9.22
2017-11-23T09:07:14.943Z,9.29
2017-11-23T09:09:43.107Z,9.37
2017-11-23T09:12:15.821Z,9.48
2017-11-23T09:14:43.979Z,9.64
2017-11-23T09:17:12.147Z,9.79
2017-11-23T09:19:40.319Z,10.06
2017-11-23T09:22:08.535Z,10.17
2017-11-23T09:24:36.700Z,10.17
2017-11-23T09:27:35.595Z,10.01
2017-11-23T09:30:03.798Z,10.18
2017-11-23T09:32:32.736Z,10.08
2017-11-23T09:35:00.935Z,10.01
2017-11-23T09:37:29.207Z,9.93
2017-11-23T09:39:57.406Z,10.06
2017-11-23T09:42:25.591Z,9.99
2017-11-23T09:44:53.752Z,10.40
2017-11-23T09:47:22.686Z,10.71
2017-11-23T09:49:51.644Z,11.13
2017-11-23T09:52:19.923Z,11.28
2017-11-23T09:54:48.153Z,11.41
2017-11-23T09:57:16.373Z,11.09
2017-11-23T09:59:44.555Z,10.96
2017-11-23T10:02:12.742Z,10.92
2017-11-23T10:04:40.915Z,10.99
2017-11-23T10:07:09.925Z,11.33
2017-11-23T10:09:38.882Z,11.37
2017-11-23T10:12:07.058Z,11.23
2017-11-23T10:14:40.819Z,11.01
2017-11-23T10:17:09.004Z,10.90
2017-11-23T10:19:37.202Z,11.08
2017-11-23T10:22:05.386Z,11.27
2017-11-23T10:24:33.805Z,11.91
2017-11-23T10:27:02.752Z,12.76
2017-11-23T10:29:30.943Z,13.70
2017-11-23T10:31:59.879Z,14.57
2017-11-23T10:34:28.073Z,15.87
2017-11-23T10:36:56.295Z,17.15
2017-11-23T10:39:24.477Z,17.60
2017-11-23T10:41:53.433Z,18.67
2017-11-23T10:44:21.613Z,18.40
2017-11-23T10:46:49.789Z,18.02
2017-11-23T10:49:18.762Z,16.77
2017-11-23T10:51:46.937Z,17.44
2017-11-23T10:54:15.131Z,19.01
2017-11-23T10:56:43.299Z,24.31
2017-11-23T10:59:11.481Z,28.78
2017-11-23T11:01:39.679Z,31.54
2017-11-23T11:04:07.912Z,33.27
2017-11-23T11:06:36.199Z,34.15
2017-11-23T11:09:04.427Z,34.16
2017-11-23T11:11:33.380Z,33.90
2017-11-23T11:14:01.597Z,35.10
2017-11-23T11:16:30.579Z,34.69
2017-11-23T11:18:59.520Z,33.50
2017-11-23T11:21:27.698Z,32.90
2017-11-23T11:23:55.881Z,34.39
2017-11-23T11:26:24.051Z,35.19
2017-11-23T11:28:52.224Z,36.24
2017-11-23T11:31:20.405Z,37.44
2017-11-23T11:33:48.582Z,36.82
2017-11-23T11:36:16.773Z,37.52
2017-11-23T11:38:44.960Z,38.76
2017-11-23T11:41:13.140Z,40.01
2017-11-23T11:43:42.153Z,40.96
2017-11-23T11:46:10.365Z,40.72
2017-11-23T11:48:38.551Z,40.70
2017-11-23T11:51:06.732Z,41.14
2017-11-23T11:53:34.908Z,41.36
2017-11-23T11:56:03.105Z,42.68
2017-11-23T11:58:32.150Z,42.08
2017-11-23T12:01:00.323Z,40.91
2017-11-23T12:03:28.502Z,41.79
2017-11-23T12:05:56.685Z,42.19
2017-11-23T12:08:24.847Z,42.26
2017-11-23T12:10:53.025Z,42.94
2017-11-23T12:13:21.247Z,44.03
2017-11-23T12:16:07.432Z,44.05
2017-11-23T12:18:47.350Z,43.62
2017-11-23T12:24:30.154Z,42.83
2017-11-23T12:26:59.118Z,42.40
2017-11-23T12:29:45.199Z,40.81
2017-11-23T12:32:13.473Z,41.40
2017-11-23T12:34:41.669Z,42.88
2017-11-23T12:37:09.844Z,44.19
2017-11-23T12:39:38.017Z,43.61
2017-11-23T12:42:06.208Z,43.15
2017-11-23T12:44:35.144Z,43.90
2017-11-23T12:47:03.318Z,41.35
2017-11-23T12:49:31.496Z,40.95
2017-11-23T12:51:59.668Z,41.88
2017-11-23T12:54:27.840Z,42.48
2017-11-23T12:56:56.024Z,42.82
2017-11-23T12:59:24.233Z,41.13
2017-11-23T13:01:53.190Z,39.63
2017-11-23T13:04:21.362Z,39.31
2017-11-23T13:06:49.544Z,39.85
2017-11-23T13:09:17.716Z,40.37
2017-11-23T13:11:45.901Z,39.31
2017-11-23T13:14:14.106Z,38.49
2017-11-23T13:16:43.043Z,37.83
2017-11-23T13:19:11.229Z,36.50
2017-11-23T13:21:39.426Z,35.73
2017-11-23T13:24:07.616Z,35.00
2017-11-23T13:26:35.793Z,33.28
2017-11-23T13:29:03.980Z,31.74
2017-11-23T13:31:32.960Z,31.64
2017-11-23T13:34:01.903Z,31.17
2017-11-23T13:36:30.092Z,31.59
2017-11-23T13:38:58.288Z,31.78
2017-11-23T13:41:26.458Z,31.69
2017-11-23T13:43:54.633Z,31.90
2017-11-23T13:46:22.843Z,32.16
2017-11-23T13:48:51.786Z,32.46
2017-11-23T13:51:19.961Z,32.82
2017-11-23T13:53:48.145Z,33.47
2017-11-23T13:56:16.328Z,33.77
2017-11-23T13:58:44.501Z,34.22
2017-11-23T14:01:12.679Z,34.75
2017-11-23T14:03:40.847Z,34.90
2017-11-23T14:06:09.022Z,34.18
2017-11-23T14:08:37.211Z,33.11
2017-11-23T14:11:06.168Z,32.73
2017-11-23T14:13:34.352Z,32.70
2017-11-23T14:16:02.530Z,32.22
2017-11-23T14:18:30.708Z,31.42
2017-11-23T14:20:58.918Z,30.48
2017-11-23T14:23:27.867Z,29.34
2017-11-23T14:25:56.039Z,27.84
2017-11-23T14:28:24.210Z,26.55
2017-11-23T14:30:52.397Z,25.19
2017-11-23T14:33:20.592Z,23.58
2017-11-23T14:35:48.761Z,22.45
2017-11-23T14:38:16.936Z,21.07
2017-11-23T14:40:45.138Z,19.89
2017-11-23T14:43:14.123Z,19.10
2017-11-23T14:45:43.075Z,18.40
2017-11-23T14:48:11.256Z,17.88
2017-11-23T14:50:39.424Z,17.65
2017-11-23T14:53:07.616Z,17.41
2017-11-23T14:55:35.804Z,17.14
2017-11-23T14:58:03.979Z,16.86
2017-11-23T15:00:32.162Z,16.49
2017-11-23T15:03:01.103Z,16.19
2017-11-23T15:05:29.280Z,15.92
2017-11-23T15:07:57.463Z,15.64
2017-11-23T15:10:25.641Z,15.33
2017-11-23T15:12:53.824Z,15.06
2017-11-23T15:15:21.999Z,14.81
2017-11-23T15:17:50.170Z,14.60
2017-11-23T15:20:18.345Z,14.32
2017-11-23T15:22:46.535Z,14.19
2017-11-23T15:25:14.719Z,14.00
2017-11-23T15:27:42.905Z,13.71
2017-11-23T15:30:11.859Z,13.50
2017-11-23T15:32:40.039Z,13.38
2017-11-23T15:35:08.983Z,13.30
2017-11-23T15:37:37.172Z,13.16
2017-11-23T15:40:05.352Z,13.06
2017-11-23T15:42:33.531Z,12.88
2017-11-23T15:45:01.807Z,12.77
2017-11-23T15:47:29.983Z,12.75
2017-11-23T15:49:58.159Z,12.57
2017-11-23T15:52:26.331Z,12.38
2017-11-23T15:54:54.507Z,12.17
2017-11-23T15:57:22.700Z,12.00
2017-11-23T15:59:50.873Z,11.93
2017-11-23T16:02:19.046Z,11.80
2017-11-23T16:04:47.234Z,11.88
2017-11-23T16:07:15.415Z,11.74
2017-11-23T16:09:43.622Z,11.57
2017-11-23T16:12:12.573Z,11.53
2017-11-23T16:14:40.743Z,11.44
2017-11-23T16:17:08.945Z,11.32
2017-11-23T16:19:37.131Z,11.27
2017-11-23T16:22:06.105Z,11.16
2017-11-23T16:24:34.286Z,11.06
2017-11-23T16:27:02.461Z,11.03
2017-11-23T16:29:30.663Z,10.89
2017-11-23T16:31:58.864Z,10.88
2017-11-23T16:34:27.051Z,10.79
2017-11-23T16:37:05.154Z,10.76
2017-11-23T16:39:33.383Z,10.65
2017-11-23T16:45:21.635Z,10.46
2017-11-23T16:51:08.455Z,10.42
2017-11-23T16:56:40.937Z,10.32
2017-11-23T17:02:37.523Z,10.14
2017-11-23T17:05:11.401Z,10.08
2017-11-23T17:07:44.970Z,9.97
2017-11-23T17:10:18.728Z,9.94
2017-11-23T17:16:06.265Z,9.72
2017-11-23T17:18:34.459Z,9.71
2017-11-23T17:21:02.652Z,9.70
2017-11-23T17:23:31.636Z,9.66
2017-11-23T17:26:00.584Z,9.64
2017-11-23T17:28:28.760Z,9.65
2017-11-23T17:30:56.923Z,9.62
2017-11-23T17:33:25.100Z,9.56
2017-11-23T17:35:53.265Z,9.55
2017-11-23T17:38:21.528Z,9.55
2017-11-23T17:40:49.765Z,9.49
2017-11-23T17:43:17.965Z,9.44
2017-11-23T17:45:46.930Z,9.20
2017-11-23T17:48:15.112Z,9.33
2017-11-23T17:50:43.349Z,9.36
2017-11-23T17:53:11.527Z,9.44
2017-11-23T17:55:39.700Z,9.36
2017-11-23T17:58:07.869Z,9.37
2017-11-23T18:00:36.038Z,9.31
2017-11-23T18:03:04.204Z,9.17
2017-11-23T18:05:32.400Z,9.17
2017-11-23T18:08:00.606Z,9.11
2017-11-23T18:10:28.771Z,9.02
2017-11-23T18:12:56.949Z,8.96
2017-11-23T18:15:25.137Z,9.06
2017-11-23T18:17:53.308Z,8.98
2017-11-23T18:20:21.493Z,8.89
2017-11-23T18:22:50.456Z,8.90
2017-11-23T18:25:18.642Z,8.85
2017-11-23T18:27:46.827Z,8.74
2017-11-23T18:30:15.003Z,8.78
2017-11-23T18:32:43.186Z,8.73
2017-11-23T18:35:12.139Z,8.74
2017-11-23T18:37:40.324Z,8.67
2017-11-23T18:40:08.556Z,8.70
2017-11-23T18:42:36.777Z,8.57
2017-11-23T18:45:04.970Z,8.50
2017-11-23T18:47:33.152Z,8.60
2017-11-23T18:50:02.097Z,8.55
2017-11-23T18:52:30.279Z,8.47
2017-11-23T18:54:58.454Z,8.42
2017-11-23T18:57:27.403Z,8.43
2017-11-23T18:59:56.354Z,8.30
2017-11-23T19:02:24.587Z,8.32
2017-11-23T19:04:52.772Z,8.27
2017-11-23T19:07:20.939Z,8.17
2017-11-23T19:09:49.155Z,8.07
2017-11-23T19:12:17.335Z,8.09
2017-11-23T19:14:45.525Z,8.13
2017-11-23T19:17:13.807Z,8.10
2017-11-23T19:19:42.005Z,8.11
2017-11-23T19:22:10.175Z,7.99
2017-11-23T19:24:38.373Z,7.94
2017-11-23T19:27:07.303Z,7.91
2017-11-23T19:29:35.480Z,7.79
2017-11-23T19:32:03.652Z,7.74
2017-11-23T19:34:31.818Z,7.72
2017-11-23T19:37:09.072Z,7.67
2017-11-23T19:39:37.267Z,7.66
2017-11-23T19:42:06.223Z,7.58
2017-11-23T19:44:34.412Z,7.59
2017-11-23T19:47:02.615Z,7.54
2017-11-23T19:49:31.577Z,7.51
2017-11-23T19:51:59.772Z,7.58
2017-11-23T19:54:28.750Z,7.56
2017-11-23T19:56:56.932Z,7.51
2017-11-23T19:59:25.128Z,7.54
2017-11-23T20:01:54.068Z,7.56
2017-11-23T20:04:22.244Z,7.48
2017-11-23T20:06:50.428Z,7.51
2017-11-23T20:09:18.632Z,7.47
2017-11-23T20:11:47.591Z,7.44
2017-11-23T20:14:15.808Z,7.43
2017-11-23T20:16:44.759Z,7.40
2017-11-23T20:19:12.941Z,7.40
2017-11-23T20:21:41.190Z,7.31
2017-11-23T20:24:09.409Z,7.23
2017-11-23T20:26:37.653Z,7.25
2017-11-23T20:29:05.844Z,7.21
2017-11-23T20:31:34.034Z,7.19
2017-11-23T20:34:02.222Z,7.17
2017-11-23T20:36:31.172Z,7.23
2017-11-23T20:38:59.388Z,7.19
2017-11-23T20:41:28.357Z,7.09
2017-11-23T20:43:56.542Z,7.08
2017-11-23T20:46:24.724Z,7.10
2017-11-23T20:48:53.680Z,7.16
2017-11-23T20:51:21.920Z,7.13
2017-11-23T20:53:50.123Z,7.10
2017-11-23T20:56:18.316Z,7.02
2017-11-23T20:58:47.282Z,6.97
2017-11-23T21:01:15.468Z,6.99
2017-11-23T21:03:43.656Z,6.96
2017-11-23T21:06:11.864Z,6.98
2017-11-23T21:08:40.824Z,6.97
2017-11-23T21:11:09.235Z,6.94
2017-11-23T21:13:38.228Z,6.89
2017-11-23T21:16:07.247Z,6.80
2017-11-23T21:18:35.437Z,6.78
2017-11-23T21:21:03.609Z,6.77
2017-11-23T21:23:31.797Z,6.80
2017-11-23T21:26:00.084Z,6.71
2017-11-23T21:28:28.254Z,6.68
2017-11-23T21:30:56.462Z,6.72
2017-11-23T21:33:24.698Z,6.76
2017-11-23T21:35:52.879Z,6.74
2017-11-23T21:38:21.065Z,6.74
2017-11-23T21:40:49.239Z,6.76
2017-11-23T21:43:17.423Z,6.76
2017-11-23T21:45:45.624Z,6.79
2017-11-23T21:48:14.576Z,6.82
2017-11-23T21:50:42.763Z,6.76
2017-11-23T21:53:10.940Z,6.80
2017-11-23T21:55:39.115Z,6.77
2017-11-23T21:58:07.298Z,6.75
2017-11-23T22:00:35.560Z,6.72
2017-11-23T22:03:03.732Z,6.65
2017-11-23T22:05:32.013Z,6.62
2017-11-23T22:08:00.187Z,6.69
2017-11-23T22:10:28.412Z,6.67
2017-11-23T22:12:56.639Z,6.70
2017-11-23T22:15:24.823Z,6.69
2017-11-23T22:17:53.009Z,6.70
2017-11-23T22:20:21.217Z,6.78
2017-11-23T22:22:49.399Z,6.74
2017-11-23T22:25:17.597Z,6.66
2017-11-23T22:27:45.786Z,6.62
2017-11-23T22:30:13.966Z,6.56
2017-11-23T22:32:42.132Z,6.55
2017-11-23T22:35:11.076Z,6.53
2017-11-23T22:37:39.387Z,6.56
2017-11-23T22:40:07.588Z,6.60
2017-11-23T22:42:35.790Z,6.54
2017-11-23T22:45:04.838Z,6.51
2017-11-23T22:47:33.112Z,6.49
2017-11-23T22:50:01.283Z,6.41
2017-11-23T22:52:29.448Z,6.38
2017-11-23T22:54:57.614Z,6.36
2017-11-23T22:57:25.808Z,6.36
2017-11-23T22:59:53.967Z,6.34
2017-11-23T23:02:22.131Z,6.28
2017-11-23T23:04:50.346Z,6.30
2017-11-23T23:07:18.609Z,6.31
2017-11-23T23:09:46.782Z,6.31
2017-11-23T23:12:14.945Z,6.33
2017-11-23T23:14:43.170Z,6.27
2017-11-23T23:17:11.362Z,6.26
2017-11-23T23:19:40.313Z,6.21
2017-11-23T23:22:08.491Z,6.20
2017-11-23T23:24:36.680Z,6.21
2017-11-23T23:27:04.851Z,6.25
2017-11-23T23:29:33.023Z,6.15
2017-11-23T23:32:01.192Z,6.09
2017-11-23T23:34:29.379Z,6.10
2017-11-23T23:36:57.551Z,6.08
2017-11-23T23:39:25.711Z,6.12
2017-11-23T23:41:54.659Z,6.15
2017-11-23T23:44:22.827Z,6.12
2017-11-23T23:46:51.770Z,6.09
2017-11-23T23:49:19.930Z,6.08
2017-11-23T23:51:48.124Z,6.05
2017-11-23T23:54:16.339Z,6.02
2017-11-23T23:56:45.267Z,6.07
2017-11-23T23:59:13.433Z,6.01
